| Date | Time | Temp. (oF) | Dew Point (oF) | Rel. Hum. (%) | Press. (in.) | Wind Dir. | Wind Speed (mph) | Hourly Rainfall (in.) |
|
|---|---|---|---|---|---|---|---|---|---|
| 1 | 11/03 | 00:00 | 38 | 35 | 90 | 30.24 | SW | 0 | 0.00 |
| 2 | 11/02 | 23:00 | 40 | 36 | 87 | 30.23 | SW | 0 | 0.00 |
| 3 | 11/02 | 22:00 | 42 | 37 | 83 | 30.24 | WSW | 1 | 0.00 |
| 4 | 11/02 | 21:00 | 43 | 37 | 80 | 30.23 | WSW | 0 | 0.00 |
| 5 | 11/02 | 20:00 | 45 | 37 | 76 | 30.21 | SW | 1 | 0.00 |
| 6 | 11/02 | 19:00 | 48 | 38 | 70 | 30.19 | SW | 2 | 0.00 |
| 7 | 11/02 | 18:00 | 51 | 37 | 61 | 30.16 | W | 1 | 0.00 |
| 8 | 11/02 | 17:00 | 55 | 38 | 53 | 30.12 | WNW | 1 | 0.00 |
| 9 | 11/02 | 16:00 | 58 | 36 | 44 | 30.10 | NW | 5 | 0.00 |
| 10 | 11/02 | 15:00 | 59 | 37 | 45 | 30.09 | NNW | 10 | 0.00 |
| 11 | 11/02 | 14:00 | 58 | 38 | 48 | 30.09 | NNW | 7 | 0.00 |
| 12 | 11/02 | 13:00 | 57 | 38 | 50 | 30.10 | NW | 12 | 0.00 |
| 13 | 11/02 | 12:00 | 56 | 40 | 56 | 30.10 | NW | 7 | 0.00 |
| 14 | 11/02 | 11:00 | 54 | 40 | 60 | 30.12 | NW | 10 | 0.00 |
| 15 | 11/02 | 10:00 | 53 | 41 | 66 | 30.12 | NW | 8 | 0.00 |
| 16 | 11/02 | 09:00 | 51 | 43 | 76 | 30.11 | WNW | 10 | 0.00 |
| 17 | 11/02 | 08:00 | 44 | 43 | 97 | 30.10 | WSW | 3 | 0.00 |
| 18 | 11/02 | 07:00 | 41 | 38 | 92 | 30.07 | WNW | 0 | 0.00 |
| 19 | 11/02 | 06:00 | 43 | 39 | 88 | 30.04 | SSW | 0 | 0.00 |
| 20 | 11/02 | 05:00 | 45 | 41 | 89 | 30.02 | WSW | 1 | 0.00 |
| 21 | 11/02 | 04:00 | 44 | 42 | 94 | 30.02 | WSW | 1 | 0.00 |
| 22 | 11/02 | 03:00 | 45 | 42 | 92 | 30.00 | WSW | 1 | 0.00 |
| 23 | 11/02 | 02:00 | 47 | 44 | 90 | 30.00 | WSW | 0 | 0.00 |
| 24 | 11/02 | 01:00 | 49 | 46 | 90 | 29.99 | SW | 4 | 0.00 |